createdAt,value
2022-10-06T00:00:47.516Z,2.20
2022-10-06T00:03:15.527Z,2.67
2022-10-06T00:05:43.611Z,2.47
2022-10-06T00:08:11.598Z,2.43
2022-10-06T00:10:40.035Z,2.20
2022-10-06T00:13:08.577Z,2.73
2022-10-06T00:15:36.254Z,2.23
2022-10-06T00:18:05.588Z,2.30
2022-10-06T00:20:33.123Z,2.03
2022-10-06T00:23:00.552Z,2.70
2022-10-06T00:25:29.105Z,2.27
2022-10-06T00:27:57.302Z,2.20
2022-10-06T00:30:26.826Z,2.50
2022-10-06T00:32:57.048Z,2.50
2022-10-06T00:35:26.988Z,2.07
2022-10-06T00:37:54.778Z,3.00
2022-10-06T00:40:23.817Z,2.30
2022-10-06T00:42:54.487Z,2.13
2022-10-06T00:45:30.251Z,2.60
2022-10-06T00:48:02.531Z,2.30
2022-10-06T00:50:31.864Z,2.93
2022-10-06T00:52:59.547Z,2.47
2022-10-06T00:55:27.150Z,2.17
2022-10-06T00:57:54.743Z,3.00
2022-10-06T01:00:22.376Z,2.90
2022-10-06T01:02:56.981Z,2.73
2022-10-06T01:05:30.589Z,2.60
2022-10-06T01:07:59.954Z,2.40
2022-10-06T01:10:27.468Z,2.67
2022-10-06T01:12:57.139Z,2.30
2022-10-06T01:15:26.760Z,2.67
2022-10-06T01:18:02.106Z,2.77
2022-10-06T01:20:30.078Z,2.47
2022-10-06T01:23:02.813Z,2.40
2022-10-06T01:25:31.360Z,2.50
2022-10-06T01:28:00.235Z,2.57
2022-10-06T01:30:32.777Z,2.27
2022-10-06T01:33:00.293Z,2.47
2022-10-06T01:35:28.245Z,2.53
2022-10-06T01:37:58.789Z,2.30
2022-10-06T01:40:30.228Z,2.40
2022-10-06T01:43:00.793Z,2.43
2022-10-06T01:45:29.106Z,2.13
2022-10-06T01:47:56.538Z,2.37
2022-10-06T01:50:24.183Z,2.47
2022-10-06T01:52:52.807Z,2.47
2022-10-06T01:55:20.367Z,2.30
2022-10-06T01:57:50.099Z,2.30
2022-10-06T02:00:18.226Z,2.50
2022-10-06T02:02:47.398Z,2.70
2022-10-06T02:05:15.667Z,2.60
2022-10-06T02:07:46.912Z,2.37
2022-10-06T02:10:16.395Z,2.30
2022-10-06T02:12:44.864Z,2.70
2022-10-06T02:15:13.681Z,2.80
2022-10-06T02:17:41.142Z,2.30
2022-10-06T02:20:09.240Z,2.80
2022-10-06T02:22:39.319Z,2.50
2022-10-06T02:25:07.654Z,2.87
2022-10-06T02:27:35.360Z,2.77
2022-10-06T02:30:02.913Z,2.50
2022-10-06T02:32:35.397Z,2.70
2022-10-06T02:35:04.694Z,2.83
2022-10-06T02:37:32.254Z,2.30
2022-10-06T02:40:01.536Z,2.30
2022-10-06T02:42:32.248Z,3.10
2022-10-06T02:45:00.600Z,2.57
2022-10-06T02:47:28.155Z,2.57
2022-10-06T02:49:57.056Z,2.57
2022-10-06T02:52:24.952Z,2.80
2022-10-06T02:54:52.517Z,2.70
2022-10-06T02:57:20.263Z,2.30
2022-10-06T02:59:47.844Z,2.40
2022-10-06T03:02:15.449Z,2.30
2022-10-06T03:04:43.020Z,2.70
2022-10-06T03:07:12.750Z,2.83
2022-10-06T03:09:40.235Z,2.47
2022-10-06T03:12:09.400Z,2.53
2022-10-06T03:14:40.193Z,2.33
2022-10-06T03:17:09.922Z,2.70
2022-10-06T03:19:42.648Z,2.67
2022-10-06T03:22:10.553Z,2.33
2022-10-06T03:24:48.228Z,2.50
2022-10-06T03:27:16.171Z,2.60
2022-10-06T03:29:43.654Z,2.37
2022-10-06T03:32:11.232Z,2.37
2022-10-06T03:34:39.202Z,2.70
2022-10-06T03:37:09.597Z,2.20
2022-10-06T03:39:37.062Z,2.60
2022-10-06T03:42:06.085Z,2.30
2022-10-06T03:44:34.957Z,2.80
2022-10-06T03:47:03.098Z,2.70
2022-10-06T03:49:31.884Z,2.70
2022-10-06T03:51:59.499Z,2.27
2022-10-06T03:54:31.377Z,2.80
2022-10-06T03:56:58.975Z,2.40
2022-10-06T03:59:31.282Z,2.40
2022-10-06T04:01:59.371Z,2.33
2022-10-06T04:04:36.152Z,2.30
2022-10-06T04:07:08.392Z,2.23
2022-10-06T04:09:36.628Z,2.30
2022-10-06T04:12:04.158Z,2.27
2022-10-06T04:14:35.460Z,2.30
2022-10-06T04:17:03.540Z,2.70
2022-10-06T04:19:34.390Z,2.40
2022-10-06T04:22:01.992Z,2.37
2022-10-06T04:24:30.784Z,2.60
2022-10-06T04:27:18.865Z,2.40
2022-10-06T04:29:56.334Z,2.07
2022-10-06T04:32:24.404Z,1.90
2022-10-06T04:34:51.969Z,1.47
2022-10-06T04:37:19.827Z,1.20
2022-10-06T04:39:47.379Z,1.00
2022-10-06T04:42:14.827Z,1.30
2022-10-06T04:44:42.269Z,0.90
2022-10-06T04:47:12.015Z,1.20
2022-10-06T04:49:40.097Z,0.90
2022-10-06T04:52:08.514Z,1.00
2022-10-06T04:54:38.239Z,0.90
2022-10-06T04:57:06.870Z,0.90
2022-10-06T04:59:52.407Z,0.90
2022-10-06T05:02:21.344Z,0.77
2022-10-06T05:04:52.996Z,1.17
2022-10-06T05:07:23.018Z,0.90
2022-10-06T05:10:00.052Z,1.10
2022-10-06T05:12:31.671Z,0.80
2022-10-06T05:15:10.082Z,1.10
2022-10-06T05:17:41.319Z,0.50
2022-10-06T05:20:37.590Z,0.90
2022-10-06T05:23:42.033Z,1.27
2022-10-06T05:26:18.694Z,1.03
2022-10-06T05:29:21.451Z,1.00
2022-10-06T05:31:52.440Z,0.73
2022-10-06T05:34:32.170Z,0.73
2022-10-06T05:37:00.941Z,0.77
2022-10-06T05:39:39.228Z,0.97
2022-10-06T05:42:10.732Z,0.80
2022-10-06T05:44:44.787Z,0.93
2022-10-06T05:47:17.917Z,0.70
2022-10-06T05:54:02.914Z,0.83
2022-10-06T05:56:32.397Z,0.60
2022-10-06T05:59:01.573Z,0.90
2022-10-06T06:01:31.873Z,0.60
2022-10-06T06:04:02.992Z,0.80
2022-10-06T06:06:37.432Z,0.50
2022-10-06T06:09:15.194Z,0.80
2022-10-06T06:15:17.390Z,0.40
2022-10-06T06:17:57.820Z,0.60
2022-10-06T06:20:40.036Z,0.60
2022-10-06T06:26:41.912Z,0.73
2022-10-06T06:29:21.811Z,0.60
2022-10-06T06:31:51.128Z,0.63
2022-10-06T06:34:20.044Z,0.40
2022-10-06T06:36:56.770Z,0.50
2022-10-06T06:39:26.596Z,0.60
2022-10-06T06:41:55.591Z,0.70
2022-10-06T06:44:42.175Z,0.33
2022-10-06T06:47:24.480Z,0.53
2022-10-06T06:49:55.160Z,0.37
2022-10-06T06:52:26.621Z,0.50
2022-10-06T06:54:57.371Z,0.63
2022-10-06T06:57:30.015Z,0.50
2022-10-06T07:00:02.769Z,0.60
2022-10-06T07:02:32.003Z,0.70
2022-10-06T07:05:01.512Z,0.87
2022-10-06T07:07:31.737Z,0.63
2022-10-06T07:10:02.807Z,0.70
2022-10-06T07:12:35.103Z,0.50
2022-10-06T07:15:20.580Z,0.50
2022-10-06T07:18:10.279Z,0.60
2022-10-06T07:21:07.562Z,0.43
2022-10-06T07:23:53.647Z,0.70
2022-10-06T07:26:32.851Z,0.93
2022-10-06T07:29:19.720Z,0.93
2022-10-06T07:31:48.197Z,1.00
2022-10-06T07:34:16.731Z,0.87
2022-10-06T07:37:06.513Z,0.83
2022-10-06T07:39:35.336Z,0.50
2022-10-06T07:42:03.281Z,0.80
2022-10-06T07:44:32.714Z,0.90
2022-10-06T07:47:02.569Z,0.90
2022-10-06T07:49:51.047Z,0.83
2022-10-06T07:52:18.967Z,0.93
2022-10-06T07:54:49.438Z,0.90
2022-10-06T07:57:35.849Z,1.00
2022-10-06T08:00:07.421Z,1.10
2022-10-06T08:02:39.906Z,0.90
2022-10-06T08:05:08.548Z,0.97
2022-10-06T08:07:36.306Z,0.70
2022-10-06T08:10:04.230Z,0.90
2022-10-06T08:12:37.238Z,1.33
2022-10-06T08:15:08.389Z,0.80
2022-10-06T08:17:37.008Z,1.00
2022-10-06T08:20:05.433Z,0.93
2022-10-06T08:22:33.313Z,1.00
2022-10-06T08:25:08.267Z,1.00
2022-10-06T08:27:37.123Z,0.90
2022-10-06T08:30:08.569Z,1.07
2022-10-06T08:32:36.335Z,0.80
2022-10-06T08:35:04.166Z,0.87
2022-10-06T08:37:32.002Z,0.80
2022-10-06T08:39:59.657Z,1.03
2022-10-06T08:42:41.418Z,0.97
2022-10-06T08:45:15.683Z,1.00
2022-10-06T08:47:51.983Z,0.80
2022-10-06T08:50:21.326Z,0.90
2022-10-06T08:53:02.724Z,0.83
2022-10-06T08:55:39.535Z,0.70
2022-10-06T08:58:20.865Z,1.10
2022-10-06T09:00:50.801Z,0.60
2022-10-06T09:03:23.753Z,0.90
2022-10-06T09:05:53.637Z,0.80
2022-10-06T09:08:38.917Z,0.80
2022-10-06T09:11:17.778Z,1.17
2022-10-06T09:13:53.217Z,0.73
2022-10-06T09:16:29.074Z,0.80
2022-10-06T09:19:08.854Z,0.90
2022-10-06T09:21:42.235Z,0.90
2022-10-06T09:24:14.874Z,1.20
2022-10-06T09:26:45.332Z,1.00
2022-10-06T09:29:14.157Z,1.00
2022-10-06T09:31:44.655Z,1.27
2022-10-06T09:34:21.708Z,1.33
2022-10-06T09:37:02.820Z,0.43
2022-10-06T09:39:36.472Z,0.97
2022-10-06T09:42:12.413Z,0.90
2022-10-06T09:44:52.988Z,0.80
2022-10-06T09:47:44.951Z,1.20
2022-10-06T09:50:22.789Z,1.27
2022-10-06T09:53:05.863Z,0.90
2022-10-06T09:55:45.795Z,1.00
2022-10-06T09:58:22.666Z,1.37
2022-10-06T10:00:57.125Z,0.83
2022-10-06T10:03:31.050Z,0.70
2022-10-06T10:06:02.478Z,0.90
2022-10-06T10:08:30.920Z,1.00
2022-10-06T10:11:27.552Z,0.70
2022-10-06T10:13:57.769Z,1.03
2022-10-06T10:16:26.685Z,0.83
2022-10-06T10:18:56.629Z,1.20
2022-10-06T10:21:25.906Z,1.03
2022-10-06T10:23:56.271Z,0.60
2022-10-06T10:26:37.577Z,1.00
2022-10-06T10:29:33.062Z,1.00
2022-10-06T10:32:10.185Z,1.00
2022-10-06T10:34:52.380Z,1.00
2022-10-06T10:37:26.464Z,1.00
2022-10-06T10:40:00.069Z,1.00
2022-10-06T10:42:37.178Z,1.30
2022-10-06T10:45:12.227Z,1.13
2022-10-06T10:47:42.502Z,1.10
2022-10-06T10:50:20.988Z,0.90
2022-10-06T10:52:58.181Z,0.70
2022-10-06T10:56:14.384Z,0.80
2022-10-06T11:07:33.056Z,1.10
2022-10-06T11:10:13.746Z,1.03
2022-10-06T11:13:04.839Z,1.00
2022-10-06T11:15:49.989Z,1.00
2022-10-06T11:18:31.212Z,1.00
2022-10-06T11:21:07.403Z,1.90
2022-10-06T11:23:47.356Z,1.33
2022-10-06T11:26:29.296Z,0.80
2022-10-06T11:29:04.770Z,0.93
2022-10-06T11:31:36.776Z,1.03
2022-10-06T11:34:07.130Z,1.23
2022-10-06T11:36:43.514Z,1.13
2022-10-06T11:39:20.238Z,0.70
2022-10-06T11:41:53.942Z,1.97
2022-10-06T11:44:32.703Z,1.50
2022-10-06T11:47:06.251Z,1.20
2022-10-06T11:49:39.437Z,0.80
2022-10-06T11:52:36.320Z,1.00
2022-10-06T11:55:16.281Z,1.00
2022-10-06T11:58:23.546Z,1.00
2022-10-06T12:00:55.025Z,0.90
2022-10-06T12:04:06.660Z,0.83
2022-10-06T12:06:55.025Z,0.73
2022-10-06T12:09:52.080Z,1.17
2022-10-06T12:13:13.953Z,1.00
2022-10-06T12:19:19.603Z,0.90
2022-10-06T12:21:54.679Z,1.00
2022-10-06T12:24:32.076Z,1.20
2022-10-06T12:27:25.925Z,0.90
2022-10-06T12:30:02.607Z,1.10
2022-10-06T12:32:46.412Z,1.03
2022-10-06T12:35:26.832Z,0.90
2022-10-06T12:37:55.483Z,0.60
2022-10-06T12:40:56.617Z,1.13
2022-10-06T12:43:53.862Z,1.00
2022-10-06T12:46:29.232Z,1.10
2022-10-06T12:49:26.631Z,0.77
2022-10-06T12:51:57.932Z,0.80
2022-10-06T12:54:35.384Z,0.90
2022-10-06T12:57:16.078Z,1.00
2022-10-06T12:59:44.099Z,1.33
2022-10-06T13:02:18.546Z,1.00
2022-10-06T13:04:52.609Z,1.00
2022-10-06T13:07:22.972Z,1.00
2022-10-06T13:09:55.698Z,0.90
2022-10-06T13:12:27.586Z,1.30
2022-10-06T13:15:15.386Z,1.00
2022-10-06T13:17:45.131Z,1.13
2022-10-06T13:20:33.356Z,1.20
2022-10-06T13:23:03.258Z,1.10
2022-10-06T13:25:36.205Z,1.20
2022-10-06T13:28:04.298Z,0.97
2022-10-06T13:30:38.396Z,1.00
2022-10-06T13:33:09.569Z,0.97
2022-10-06T13:35:39.389Z,0.93
2022-10-06T13:38:06.983Z,1.20
2022-10-06T13:40:50.375Z,0.93
2022-10-06T13:43:20.298Z,0.93
2022-10-06T13:45:49.999Z,1.17
2022-10-06T13:48:22.178Z,1.00
2022-10-06T13:50:54.553Z,1.07
2022-10-06T13:53:31.557Z,1.07
2022-10-06T13:55:59.944Z,1.20
2022-10-06T13:58:30.071Z,1.27
2022-10-06T14:01:01.298Z,1.20
2022-10-06T14:06:17.102Z,0.83
2022-10-06T14:08:49.566Z,1.03
2022-10-06T14:11:24.240Z,0.97
2022-10-06T14:13:56.984Z,0.80
2022-10-06T14:16:27.128Z,0.70
2022-10-06T14:18:58.356Z,0.90
2022-10-06T14:21:37.062Z,1.23
2022-10-06T14:24:07.750Z,0.80
2022-10-06T14:26:38.236Z,1.07
2022-10-06T14:29:07.645Z,1.20
2022-10-06T14:31:35.737Z,0.63
2022-10-06T14:34:05.735Z,0.73
2022-10-06T14:36:55.397Z,0.77
2022-10-06T14:40:48.789Z,1.00
2022-10-06T14:44:25.520Z,1.00
2022-10-06T15:19:56.256Z,0.90
2022-10-06T15:22:43.301Z,0.70
2022-10-06T15:25:46.359Z,0.80
2022-10-06T15:28:55.586Z,0.80
2022-10-06T15:31:57.461Z,0.67
2022-10-06T15:34:36.978Z,0.60
2022-10-06T15:37:11.711Z,0.90
2022-10-06T15:39:41.096Z,0.90
2022-10-06T15:42:28.467Z,0.97
2022-10-06T15:45:01.718Z,0.80
2022-10-06T15:47:38.535Z,0.70
2022-10-06T15:50:07.393Z,1.10
2022-10-06T15:52:36.010Z,1.13
2022-10-06T15:55:04.025Z,1.17
2022-10-06T15:57:31.968Z,1.20
2022-10-06T16:00:00.621Z,1.47
2022-10-06T16:02:35.087Z,1.40
2022-10-06T16:05:24.490Z,1.10
2022-10-06T16:08:00.450Z,0.97
2022-10-06T16:10:31.641Z,1.30
2022-10-06T16:13:02.024Z,0.87
2022-10-06T16:15:33.706Z,1.00
2022-10-06T16:18:05.497Z,0.67
2022-10-06T16:20:42.576Z,0.80
2022-10-06T16:23:15.037Z,0.90
2022-10-06T16:25:48.402Z,0.90
2022-10-06T16:28:16.848Z,0.70
2022-10-06T16:30:44.660Z,0.90
2022-10-06T16:33:26.041Z,0.93
2022-10-06T16:36:04.828Z,1.00
2022-10-06T16:38:41.466Z,0.80
2022-10-06T16:41:15.153Z,0.93
2022-10-06T16:43:54.514Z,1.20
2022-10-06T16:46:26.288Z,1.07
2022-10-06T16:48:59.747Z,1.20
2022-10-06T16:51:35.272Z,0.80
2022-10-06T16:54:04.683Z,1.23
2022-10-06T16:56:34.449Z,1.30
2022-10-06T16:59:12.769Z,1.07
2022-10-06T17:04:48.750Z,1.00
2022-10-06T17:07:20.798Z,1.30
2022-10-06T17:12:46.488Z,1.60
2022-10-06T17:19:17.481Z,3.00
2022-10-06T17:25:25.946Z,2.90
2022-10-06T17:28:17.877Z,2.57
2022-10-06T17:34:37.253Z,2.30
2022-10-06T17:40:56.356Z,2.10
2022-10-06T17:47:01.538Z,2.60
2022-10-06T17:53:26.793Z,1.93
2022-10-06T17:56:49.683Z,1.77
2022-10-06T17:59:42.058Z,1.80
2022-10-06T18:09:46.284Z,1.60
2022-10-06T18:13:11.933Z,1.87
2022-10-06T18:23:44.779Z,1.97
2022-10-06T18:29:39.885Z,2.47
2022-10-06T18:36:06.801Z,2.00
2022-10-06T18:40:17.676Z,2.23
2022-10-06T18:47:15.662Z,1.67
2022-10-06T18:51:58.777Z,1.87
2022-10-06T19:07:04.829Z,2.20
2022-10-06T19:09:42.604Z,2.53
2022-10-06T19:12:53.779Z,2.37
2022-10-06T19:19:16.515Z,2.50
2022-10-06T19:22:48.149Z,2.50
2022-10-06T19:26:18.692Z,2.77
2022-10-06T19:33:17.262Z,3.07
2022-10-06T19:48:45.193Z,3.20
2022-10-06T19:51:35.944Z,3.30
2022-10-06T19:54:14.849Z,3.73
2022-10-06T19:57:10.079Z,3.87
2022-10-06T19:59:45.481Z,3.70
2022-10-06T20:02:17.901Z,4.13
2022-10-06T20:04:54.937Z,4.30
2022-10-06T20:07:34.865Z,3.83
2022-10-06T20:10:10.905Z,3.20
2022-10-06T20:12:41.533Z,2.80
2022-10-06T20:15:13.001Z,3.13
2022-10-06T20:17:48.271Z,3.10
2022-10-06T20:20:24.141Z,3.20
2022-10-06T20:23:07.338Z,2.60
2022-10-06T20:25:53.396Z,3.63
2022-10-06T20:28:37.035Z,3.13
2022-10-06T20:31:08.886Z,3.57
2022-10-06T20:33:38.517Z,3.90
2022-10-06T20:36:08.569Z,3.33
2022-10-06T20:38:59.245Z,3.07
2022-10-06T20:41:30.376Z,3.90
2022-10-06T20:44:06.724Z,4.13
2022-10-06T20:46:43.647Z,3.43
2022-10-06T20:49:15.929Z,3.37
2022-10-06T20:51:52.560Z,3.40
2022-10-06T20:54:31.062Z,3.33
2022-10-06T20:57:19.723Z,3.47
2022-10-06T20:59:53.277Z,3.43
2022-10-06T21:02:33.886Z,3.13
2022-10-06T21:05:05.370Z,3.37
2022-10-06T21:07:34.514Z,3.27
2022-10-06T21:10:07.546Z,3.43
2022-10-06T21:12:46.271Z,3.23
2022-10-06T21:15:14.135Z,2.80
2022-10-06T21:17:53.341Z,3.00
2022-10-06T21:20:29.909Z,2.63
2022-10-06T21:22:58.854Z,2.60
2022-10-06T21:25:26.640Z,2.70
2022-10-06T21:27:56.495Z,3.53
2022-10-06T21:30:27.776Z,3.17
2022-10-06T21:33:04.188Z,3.80
2022-10-06T21:35:37.204Z,3.23
2022-10-06T21:38:10.934Z,3.07
2022-10-06T21:40:46.168Z,3.03
2022-10-06T21:43:20.409Z,3.17
2022-10-06T21:45:56.926Z,3.00
2022-10-06T21:48:36.589Z,3.20
2022-10-06T21:51:07.619Z,3.33
2022-10-06T21:53:38.158Z,3.73
2022-10-06T21:56:25.276Z,3.17
2022-10-06T21:58:55.956Z,3.20
2022-10-06T22:01:28.742Z,2.87
2022-10-06T22:04:08.913Z,3.10
2022-10-06T22:06:41.839Z,3.27
2022-10-06T22:09:17.210Z,3.47
2022-10-06T22:12:01.022Z,3.23
2022-10-06T22:14:32.088Z,2.97
2022-10-06T22:17:07.904Z,3.37
2022-10-06T22:19:42.371Z,3.27
2022-10-06T22:22:18.751Z,3.53
2022-10-06T22:24:51.329Z,3.27
2022-10-06T22:27:19.328Z,3.57
2022-10-06T22:29:47.269Z,4.17
2022-10-06T22:32:19.662Z,3.13
2022-10-06T22:34:51.253Z,3.77
2022-10-06T22:37:22.083Z,3.23
2022-10-06T22:39:50.259Z,3.30
2022-10-06T22:42:18.196Z,3.67
2022-10-06T22:44:45.881Z,3.40
2022-10-06T22:47:14.680Z,3.27
2022-10-06T22:49:42.664Z,2.60
2022-10-06T22:52:21.422Z,3.00
2022-10-06T22:57:39.647Z,3.17
2022-10-06T23:00:12.341Z,4.00
2022-10-06T23:02:40.283Z,2.80
2022-10-06T23:05:11.963Z,3.10
2022-10-06T23:07:44.648Z,2.97
2022-10-06T23:10:16.803Z,2.90
2022-10-06T23:12:48.749Z,3.13
2022-10-06T23:15:18.336Z,3.03
2022-10-06T23:17:49.498Z,2.93
2022-10-06T23:20:19.858Z,2.90
2022-10-06T23:22:53.180Z,3.47
2022-10-06T23:25:27.114Z,3.80
2022-10-06T23:28:00.087Z,3.43
2022-10-06T23:30:33.587Z,3.73
2022-10-06T23:33:01.540Z,3.10
2022-10-06T23:35:29.399Z,3.37
2022-10-06T23:37:59.121Z,3.40
2022-10-06T23:40:34.185Z,3.93
2022-10-06T23:43:07.180Z,2.80
2022-10-06T23:45:36.586Z,2.93
2022-10-06T23:48:05.235Z,3.10
2022-10-06T23:50:34.435Z,2.87
2022-10-06T23:53:05.733Z,3.43
2022-10-06T23:55:33.940Z,3.20
2022-10-06T23:58:01.679Z,3.27
